createdAt,value
2022-08-23T00:01:29.170Z,100.00
2022-08-23T00:04:02.319Z,100.00
2022-08-23T00:06:29.847Z,100.00
2022-08-23T00:08:56.704Z,100.00
2022-08-23T00:11:38.105Z,100.00
2022-08-23T00:14:20.311Z,100.00
2022-08-23T00:16:47.477Z,100.00
2022-08-23T00:19:16.669Z,100.00
2022-08-23T00:21:44.460Z,100.00
2022-08-23T00:24:13.582Z,100.00
2022-08-23T00:27:11.404Z,100.00
2022-08-23T00:29:40.830Z,100.00
2022-08-23T00:32:11.174Z,100.00
2022-08-23T00:34:38.882Z,100.00
2022-08-23T00:37:06.302Z,100.00
2022-08-23T00:39:33.030Z,100.00
2022-08-23T00:42:25.197Z,100.00
2022-08-23T00:45:10.635Z,100.00
2022-08-23T00:47:40.277Z,100.00
2022-08-23T00:50:25.521Z,100.00
2022-08-23T00:53:15.118Z,100.00
2022-08-23T00:55:45.278Z,100.00
2022-08-23T00:58:13.724Z,100.00
2022-08-23T01:00:41.131Z,100.00
2022-08-23T01:03:10.388Z,100.00
2022-08-23T01:05:48.398Z,100.00
2022-08-23T01:08:14.941Z,100.00
2022-08-23T01:10:55.525Z,100.00
2022-08-23T01:13:31.172Z,100.00
2022-08-23T01:16:09.846Z,100.00
2022-08-23T01:18:37.905Z,100.00
2022-08-23T01:21:29.036Z,100.00
2022-08-23T01:24:00.454Z,100.00
2022-08-23T01:26:27.451Z,100.00
2022-08-23T01:28:55.133Z,100.00
2022-08-23T01:31:23.824Z,100.00
2022-08-23T01:33:56.968Z,100.00
2022-08-23T01:36:23.482Z,100.00
2022-08-23T01:38:50.146Z,100.00
2022-08-23T01:41:16.585Z,100.00
2022-08-23T01:43:44.135Z,100.00
2022-08-23T01:46:31.991Z,100.00
2022-08-23T01:48:59.300Z,100.00
2022-08-23T01:51:29.851Z,100.00
2022-08-23T01:53:56.486Z,100.00
2022-08-23T01:56:38.922Z,100.00
2022-08-23T01:59:08.399Z,100.00
2022-08-23T02:01:35.720Z,100.00
2022-08-23T02:04:04.505Z,100.00
2022-08-23T02:06:32.247Z,100.00
2022-08-23T02:09:01.560Z,100.00
2022-08-23T02:11:34.823Z,100.00
2022-08-23T02:14:06.930Z,100.00
2022-08-23T02:16:36.968Z,100.00
2022-08-23T02:19:07.659Z,100.00
2022-08-23T02:21:37.418Z,100.00
2022-08-23T02:24:15.793Z,100.00
2022-08-23T02:26:46.552Z,100.00
2022-08-23T02:29:15.653Z,100.00
2022-08-23T02:31:44.341Z,100.00
2022-08-23T02:37:00.171Z,100.00
2022-08-23T02:39:27.535Z,100.00
2022-08-23T02:41:55.084Z,100.00
2022-08-23T02:44:22.466Z,100.00
2022-08-23T02:46:49.419Z,100.00
2022-08-23T02:49:17.050Z,100.00
2022-08-23T02:51:44.928Z,100.00
2022-08-23T02:54:11.586Z,100.00
2022-08-23T02:56:41.714Z,100.00
2022-08-23T02:59:08.609Z,100.00
2022-08-23T03:01:39.142Z,100.00
2022-08-23T03:04:09.809Z,100.00
2022-08-23T03:06:38.782Z,100.00
2022-08-23T03:09:07.785Z,100.00
2022-08-23T03:11:35.840Z,100.00
2022-08-23T03:14:03.266Z,100.00
2022-08-23T03:16:30.225Z,100.00
2022-08-23T03:18:56.708Z,100.00
2022-08-23T03:21:24.161Z,100.00
2022-08-23T03:23:51.209Z,100.00
2022-08-23T03:26:17.829Z,100.00
2022-08-23T03:28:45.582Z,100.00
2022-08-23T03:31:13.442Z,100.00
2022-08-23T03:33:40.284Z,100.00
2022-08-23T03:36:09.121Z,100.00
2022-08-23T03:38:36.892Z,100.00
2022-08-23T03:41:03.309Z,100.00
2022-08-23T03:43:29.907Z,100.00
2022-08-23T03:45:56.670Z,100.00
2022-08-23T03:48:23.157Z,100.00
2022-08-23T03:50:49.588Z,100.00
2022-08-23T03:53:16.648Z,100.00
2022-08-23T03:55:43.620Z,100.00
2022-08-23T03:58:11.346Z,100.00
2022-08-23T04:00:39.645Z,100.00
2022-08-23T04:03:06.774Z,100.00
2022-08-23T04:05:33.310Z,100.00
2022-08-23T04:08:02.689Z,100.00
2022-08-23T04:10:29.439Z,100.00
2022-08-23T04:12:56.268Z,100.00
2022-08-23T04:15:22.809Z,100.00
2022-08-23T04:17:49.263Z,100.00
2022-08-23T04:20:16.366Z,100.00
2022-08-23T04:22:47.843Z,100.00
2022-08-23T04:25:33.102Z,100.00
2022-08-23T04:28:01.877Z,100.00
2022-08-23T04:30:32.534Z,100.00
2022-08-23T04:33:01.747Z,100.00
2022-08-23T04:35:28.345Z,100.00
2022-08-23T04:37:54.768Z,100.00
2022-08-23T04:40:46.289Z,100.00
2022-08-23T04:43:12.861Z,100.00
2022-08-23T04:45:40.104Z,100.00
2022-08-23T04:48:11.987Z,100.00
2022-08-23T04:50:39.687Z,100.00
2022-08-23T04:53:08.150Z,100.00
2022-08-23T04:55:36.381Z,100.00
2022-08-23T04:58:03.291Z,100.00
2022-08-23T05:00:34.435Z,100.00
2022-08-23T05:03:00.834Z,100.00
2022-08-23T05:05:27.897Z,100.00
2022-08-23T05:07:55.095Z,100.00
2022-08-23T05:10:21.999Z,100.00
2022-08-23T05:12:49.474Z,100.00
2022-08-23T05:15:21.430Z,100.00
2022-08-23T05:17:48.101Z,100.00
2022-08-23T05:20:14.695Z,100.00
2022-08-23T05:22:41.983Z,100.00
2022-08-23T05:25:09.558Z,100.00
2022-08-23T05:27:37.888Z,100.00
2022-08-23T05:30:08.188Z,100.00
2022-08-23T05:32:41.612Z,100.00
2022-08-23T05:35:08.417Z,100.00
2022-08-23T05:37:34.813Z,100.00
2022-08-23T05:40:01.228Z,100.00
2022-08-23T05:42:27.782Z,100.00
2022-08-23T05:44:54.175Z,100.00
2022-08-23T05:47:24.637Z,100.00
2022-08-23T05:49:51.569Z,100.00
2022-08-23T05:52:17.962Z,100.00
2022-08-23T05:54:44.406Z,100.00
2022-08-23T05:57:11.627Z,100.00
2022-08-23T05:59:39.750Z,100.00
2022-08-23T06:02:06.207Z,100.00
2022-08-23T06:04:33.083Z,100.00
2022-08-23T06:07:00.093Z,100.00
2022-08-23T06:09:26.879Z,100.00
2022-08-23T06:11:54.032Z,100.00
2022-08-23T06:14:20.733Z,100.00
2022-08-23T06:16:51.692Z,100.00
2022-08-23T06:19:21.595Z,100.00
2022-08-23T06:21:48.619Z,100.00
2022-08-23T06:24:15.197Z,100.00
2022-08-23T06:26:45.265Z,100.00
2022-08-23T06:29:16.589Z,100.00
2022-08-23T06:31:49.040Z,100.00
2022-08-23T06:34:24.611Z,100.00
2022-08-23T06:36:56.109Z,100.00
2022-08-23T06:39:26.023Z,100.00
2022-08-23T06:41:54.002Z,100.00
2022-08-23T06:44:20.843Z,100.00
2022-08-23T06:46:50.076Z,100.00
2022-08-23T06:49:16.564Z,100.00
2022-08-23T06:51:46.141Z,100.00
2022-08-23T06:54:15.232Z,100.00
2022-08-23T06:56:45.180Z,100.00
2022-08-23T06:59:12.381Z,100.00
2022-08-23T07:01:54.275Z,100.00
2022-08-23T07:04:26.422Z,100.00
2022-08-23T07:06:53.113Z,100.00
2022-08-23T07:09:19.913Z,100.00
2022-08-23T07:11:46.870Z,100.00
2022-08-23T07:14:18.994Z,100.00
2022-08-23T07:16:51.643Z,100.00
2022-08-23T07:19:20.413Z,100.00
2022-08-23T07:21:48.827Z,100.00
2022-08-23T07:24:18.260Z,100.00
2022-08-23T07:26:46.773Z,100.00
2022-08-23T07:29:19.791Z,100.00
2022-08-23T07:31:48.284Z,100.00
2022-08-23T07:34:19.002Z,100.00
2022-08-23T07:36:47.414Z,100.00
2022-08-23T07:39:15.096Z,100.00
2022-08-23T07:41:42.287Z,100.00
2022-08-23T07:44:10.663Z,100.00
2022-08-23T07:46:40.858Z,100.00
2022-08-23T07:49:08.677Z,100.00
2022-08-23T07:51:36.780Z,100.00
2022-08-23T07:54:06.661Z,100.00
2022-08-23T07:56:35.115Z,100.00
2022-08-23T07:59:01.814Z,100.00
2022-08-23T08:01:29.640Z,100.00
2022-08-23T08:03:59.249Z,96.91
2022-08-23T08:06:59.940Z,86.53
2022-08-23T08:09:34.587Z,87.29
2022-08-23T08:12:01.120Z,84.76
2022-08-23T08:14:27.678Z,77.23
2022-08-23T08:16:56.208Z,85.46
2022-08-23T08:19:23.190Z,74.35
2022-08-23T08:21:49.635Z,76.53
2022-08-23T08:24:17.527Z,81.49
2022-08-23T08:26:45.869Z,69.63
2022-08-23T08:29:15.345Z,71.93
2022-08-23T08:31:44.326Z,68.72
2022-08-23T08:34:11.953Z,67.47
2022-08-23T08:36:44.756Z,63.89
2022-08-23T08:39:13.008Z,64.46
2022-08-23T08:41:58.776Z,61.53
2022-08-23T08:44:47.086Z,54.66
2022-08-23T08:47:38.319Z,59.85
2022-08-23T08:50:27.194Z,60.30
2022-08-23T08:53:09.245Z,62.99
2022-08-23T08:55:49.282Z,65.97
2022-08-23T08:58:27.294Z,58.14
2022-08-23T09:00:56.563Z,58.41
2022-08-23T09:03:25.719Z,54.71
2022-08-23T09:06:03.183Z,55.15
2022-08-23T09:08:56.309Z,53.65
2022-08-23T09:12:05.541Z,51.59
2022-08-23T09:14:58.445Z,62.60
2022-08-23T09:17:32.157Z,57.00
2022-08-23T09:20:06.281Z,52.75
2022-08-23T09:22:47.675Z,51.42
2022-08-23T09:25:16.941Z,52.72
2022-08-23T09:27:45.723Z,52.41
2022-08-23T09:30:15.044Z,53.83
2022-08-23T09:32:44.484Z,49.49
2022-08-23T09:35:17.240Z,46.84
2022-08-23T09:37:55.327Z,46.44
2022-08-23T09:40:38.994Z,42.95
2022-08-23T09:43:23.553Z,48.23
2022-08-23T09:45:49.912Z,46.84
2022-08-23T09:48:39.450Z,47.25
2022-08-23T09:51:08.658Z,44.67
2022-08-23T09:53:35.365Z,43.68
2022-08-23T09:56:22.157Z,42.00
2022-08-23T09:58:52.537Z,44.00
2022-08-23T10:01:22.111Z,45.62
2022-08-23T10:04:12.059Z,43.89
2022-08-23T10:06:40.890Z,44.68
2022-08-23T10:09:10.006Z,45.56
2022-08-23T10:11:41.200Z,43.82
2022-08-23T10:14:11.295Z,40.33
2022-08-23T10:16:47.737Z,44.88
2022-08-23T10:19:26.530Z,47.09
2022-08-23T10:22:14.387Z,47.72
2022-08-23T10:24:50.786Z,46.87
2022-08-23T10:27:50.599Z,43.13
2022-08-23T10:30:22.405Z,49.79
2022-08-23T10:33:18.519Z,43.31
2022-08-23T10:36:11.260Z,43.98
2022-08-23T10:38:45.615Z,40.61
2022-08-23T10:41:43.497Z,40.37
2022-08-23T10:44:23.193Z,38.84
2022-08-23T10:47:15.525Z,43.94
2022-08-23T10:49:43.340Z,44.40
2022-08-23T10:52:18.243Z,43.42
2022-08-23T10:55:10.095Z,42.80
2022-08-23T10:57:40.920Z,40.14
2022-08-23T11:00:15.364Z,38.97
2022-08-23T11:02:50.569Z,46.04
2022-08-23T11:05:30.617Z,45.26
2022-08-23T11:08:03.431Z,45.57
2022-08-23T11:10:33.156Z,46.88
2022-08-23T11:13:19.122Z,43.52
2022-08-23T11:15:45.719Z,40.19
2022-08-23T11:18:37.949Z,43.48
2022-08-23T11:21:25.697Z,41.92
2022-08-23T11:24:15.582Z,39.60
2022-08-23T11:26:46.993Z,43.12
2022-08-23T11:29:23.367Z,39.57
2022-08-23T11:32:02.036Z,39.75
2022-08-23T11:34:48.249Z,41.09
2022-08-23T11:37:20.927Z,39.16
2022-08-23T11:39:57.504Z,39.34
2022-08-23T11:42:44.115Z,39.08
2022-08-23T11:45:41.299Z,35.04
2022-08-23T11:48:22.700Z,35.71
2022-08-23T11:50:58.058Z,36.81
2022-08-23T11:53:57.973Z,34.34
2022-08-23T11:56:33.657Z,34.50
2022-08-23T11:59:30.063Z,35.81
2022-08-23T12:01:58.667Z,34.60
2022-08-23T12:04:49.289Z,33.18
2022-08-23T12:07:54.528Z,35.17
2022-08-23T12:10:45.162Z,31.77
2022-08-23T12:13:20.916Z,35.07
2022-08-23T12:16:07.556Z,35.16
2022-08-23T12:18:52.883Z,37.88
2022-08-23T12:21:24.056Z,39.85
2022-08-23T12:23:53.327Z,38.25
2022-08-23T12:26:35.250Z,36.50
2022-08-23T12:29:12.442Z,36.92
2022-08-23T12:31:56.954Z,39.83
2022-08-23T12:34:32.632Z,38.07
2022-08-23T12:37:23.556Z,38.10
2022-08-23T12:39:59.306Z,35.12
2022-08-23T12:42:30.272Z,36.33
2022-08-23T12:45:13.550Z,35.51
2022-08-23T12:47:43.326Z,34.24
2022-08-23T12:50:15.501Z,32.82
2022-08-23T12:52:42.178Z,32.19
2022-08-23T12:55:17.441Z,32.71
2022-08-23T12:57:51.738Z,34.15
2022-08-23T13:00:24.346Z,34.26
2022-08-23T13:02:58.776Z,32.89
2022-08-23T13:05:48.045Z,33.33
2022-08-23T13:08:33.589Z,34.91
2022-08-23T13:11:07.469Z,35.55
2022-08-23T13:13:37.320Z,33.17
2022-08-23T13:16:27.254Z,35.74
2022-08-23T13:18:56.075Z,35.17
2022-08-23T13:21:22.907Z,36.96
2022-08-23T13:23:55.210Z,36.13
2022-08-23T13:26:26.919Z,38.77
2022-08-23T13:29:11.795Z,38.70
2022-08-23T13:32:02.566Z,40.21
2022-08-23T13:34:48.767Z,43.88
2022-08-23T13:37:18.654Z,42.36
2022-08-23T13:39:58.721Z,43.49
2022-08-23T13:42:33.468Z,43.01
2022-08-23T13:45:07.862Z,41.99
2022-08-23T13:47:36.484Z,42.93
2022-08-23T13:50:09.766Z,44.57
2022-08-23T13:52:56.637Z,44.29
2022-08-23T13:55:26.292Z,45.46
2022-08-23T13:57:52.988Z,44.15
2022-08-23T14:00:22.711Z,44.87
2022-08-23T14:02:49.605Z,47.05
2022-08-23T14:05:20.010Z,46.53
2022-08-23T14:07:48.410Z,45.80
2022-08-23T14:10:15.715Z,44.81
2022-08-23T14:12:46.935Z,44.45
2022-08-23T14:15:13.948Z,43.01
2022-08-23T14:17:43.222Z,43.70
2022-08-23T14:23:02.363Z,44.94
2022-08-23T14:25:35.554Z,45.83
2022-08-23T14:28:01.944Z,49.56
2022-08-23T14:30:36.268Z,50.92
2022-08-23T14:33:06.329Z,53.08
2022-08-23T14:35:33.110Z,52.08
2022-08-23T14:38:03.272Z,51.15
2022-08-23T14:40:30.974Z,52.61
2022-08-23T14:42:58.861Z,53.82
2022-08-23T14:45:25.553Z,52.53
2022-08-23T14:47:52.003Z,57.04
2022-08-23T14:50:18.587Z,56.80
2022-08-23T14:52:48.787Z,57.21
2022-08-23T14:55:16.387Z,56.99
2022-08-23T14:57:43.280Z,57.03
2022-08-23T15:00:15.211Z,56.72
2022-08-23T15:02:46.191Z,57.05
2022-08-23T15:05:13.931Z,55.53
2022-08-23T15:07:40.634Z,56.32
2022-08-23T15:10:09.980Z,56.20
2022-08-23T15:15:23.894Z,58.00
2022-08-23T15:17:58.198Z,57.83
2022-08-23T15:20:29.065Z,58.24
2022-08-23T15:22:56.274Z,58.62
2022-08-23T15:25:24.796Z,58.20
2022-08-23T15:27:51.914Z,59.01
2022-08-23T15:30:18.720Z,60.01
2022-08-23T15:32:52.132Z,60.88
2022-08-23T15:35:19.896Z,60.74
2022-08-23T15:37:48.370Z,60.69
2022-08-23T15:40:16.112Z,63.32
2022-08-23T15:42:42.818Z,62.91
2022-08-23T15:45:09.700Z,63.52
2022-08-23T15:47:58.803Z,63.19
2022-08-23T15:50:31.034Z,61.78
2022-08-23T15:52:58.005Z,66.81
2022-08-23T15:55:29.083Z,70.08
2022-08-23T15:57:59.021Z,69.75
2022-08-23T16:00:27.426Z,70.89
2022-08-23T16:03:18.461Z,71.30
2022-08-23T16:05:43.805Z,71.38
2022-08-23T16:08:17.414Z,75.22
2022-08-23T16:10:43.817Z,77.44
2022-08-23T16:13:10.559Z,78.04
2022-08-23T16:15:39.091Z,77.77
2022-08-23T16:18:08.200Z,77.45
2022-08-23T16:20:34.671Z,77.49
2022-08-23T16:23:01.367Z,77.82
2022-08-23T16:25:27.889Z,78.67
2022-08-23T16:27:54.678Z,79.05
2022-08-23T16:30:21.294Z,80.30
2022-08-23T16:32:48.047Z,82.54
2022-08-23T16:35:15.463Z,82.34
2022-08-23T16:37:42.217Z,82.09
2022-08-23T16:40:09.723Z,81.07
2022-08-23T16:42:37.746Z,82.21
2022-08-23T16:45:05.189Z,81.90
2022-08-23T16:47:35.156Z,82.97
2022-08-23T16:50:01.709Z,83.06
2022-08-23T16:52:34.643Z,85.07
2022-08-23T16:55:03.374Z,83.79
2022-08-23T16:57:29.794Z,82.94
2022-08-23T16:59:56.200Z,82.82
2022-08-23T17:02:32.041Z,84.52
2022-08-23T17:04:59.358Z,85.97
2022-08-23T17:07:26.102Z,86.09
2022-08-23T17:09:52.525Z,86.21
2022-08-23T17:12:19.598Z,86.91
2022-08-23T17:14:48.874Z,87.03
2022-08-23T17:17:16.349Z,88.56
2022-08-23T17:19:44.012Z,90.64
2022-08-23T17:22:10.819Z,90.09
2022-08-23T17:24:37.422Z,91.05
2022-08-23T17:27:05.353Z,92.86
2022-08-23T17:29:37.387Z,91.71
2022-08-23T17:32:04.511Z,92.65
2022-08-23T17:34:31.077Z,92.86
2022-08-23T17:36:57.481Z,93.42
2022-08-23T17:39:28.986Z,94.13
2022-08-23T17:41:56.371Z,94.60
2022-08-23T17:44:22.979Z,95.82
2022-08-23T17:46:50.863Z,95.77
2022-08-23T17:49:18.841Z,96.62
2022-08-23T17:51:45.718Z,97.49
2022-08-23T17:54:16.101Z,98.70
2022-08-23T17:56:50.241Z,99.28
2022-08-23T17:59:18.877Z,99.61
2022-08-23T18:01:45.369Z,99.30
2022-08-23T18:04:11.816Z,100.00
2022-08-23T18:06:39.202Z,100.00
2022-08-23T18:09:07.025Z,100.00
2022-08-23T18:11:34.135Z,100.00
2022-08-23T18:14:00.653Z,100.00
2022-08-23T18:16:33.128Z,100.00
2022-08-23T18:19:02.699Z,100.00
2022-08-23T18:21:30.947Z,100.00
2022-08-23T18:23:58.854Z,100.00
2022-08-23T18:26:44.567Z,100.00
2022-08-23T18:29:14.080Z,100.00
2022-08-23T18:31:42.713Z,100.00
2022-08-23T18:34:11.021Z,100.00
2022-08-23T18:36:37.946Z,100.00
2022-08-23T18:39:07.702Z,100.00
2022-08-23T18:41:34.945Z,100.00
2022-08-23T18:44:05.468Z,100.00
2022-08-23T18:46:37.777Z,100.00
2022-08-23T18:49:05.998Z,100.00
2022-08-23T18:51:32.514Z,100.00
2022-08-23T18:53:59.753Z,100.00
2022-08-23T18:56:26.815Z,100.00
2022-08-23T18:58:53.591Z,100.00
2022-08-23T19:01:39.109Z,100.00
2022-08-23T19:04:07.423Z,100.00
2022-08-23T19:06:34.746Z,100.00
2022-08-23T19:09:01.198Z,100.00
2022-08-23T19:11:29.922Z,100.00
2022-08-23T19:13:58.551Z,100.00
2022-08-23T19:16:26.836Z,100.00
2022-08-23T19:18:55.375Z,100.00
2022-08-23T19:21:24.297Z,100.00
2022-08-23T19:23:55.369Z,100.00
2022-08-23T19:26:25.815Z,100.00
2022-08-23T19:28:52.522Z,100.00
2022-08-23T19:31:19.049Z,100.00
2022-08-23T19:33:46.167Z,100.00
2022-08-23T19:36:29.374Z,100.00
2022-08-23T19:38:59.216Z,100.00
2022-08-23T19:41:25.933Z,100.00
2022-08-23T19:43:52.393Z,100.00
2022-08-23T19:46:18.948Z,100.00
2022-08-23T19:48:47.374Z,100.00
2022-08-23T19:51:17.169Z,100.00
2022-08-23T19:54:11.184Z,100.00
2022-08-23T19:56:48.658Z,100.00
2022-08-23T19:59:25.282Z,100.00
2022-08-23T20:01:53.590Z,100.00
2022-08-23T20:04:21.548Z,100.00
2022-08-23T20:06:50.854Z,100.00
2022-08-23T20:09:18.709Z,100.00
2022-08-23T20:11:45.350Z,100.00
2022-08-23T20:14:11.815Z,100.00
2022-08-23T20:16:40.684Z,100.00
2022-08-23T20:19:10.442Z,100.00
2022-08-23T20:21:39.980Z,100.00
2022-08-23T20:24:10.244Z,100.00
2022-08-23T20:26:41.915Z,100.00
2022-08-23T20:29:17.971Z,100.00
2022-08-23T20:31:56.202Z,100.00
2022-08-23T20:34:27.022Z,100.00
2022-08-23T20:36:56.170Z,100.00
2022-08-23T20:39:24.583Z,100.00
2022-08-23T20:41:52.331Z,100.00
2022-08-23T20:44:20.925Z,100.00
2022-08-23T20:46:51.844Z,100.00
2022-08-23T20:49:21.147Z,100.00
2022-08-23T20:51:48.192Z,100.00
2022-08-23T20:54:17.123Z,100.00
2022-08-23T20:56:44.055Z,100.00
2022-08-23T20:59:12.805Z,100.00
2022-08-23T21:01:39.424Z,100.00
2022-08-23T21:04:07.355Z,100.00
2022-08-23T21:06:45.326Z,100.00
2022-08-23T21:09:17.036Z,100.00
2022-08-23T21:11:43.938Z,100.00
2022-08-23T21:14:10.326Z,100.00
2022-08-23T21:16:37.415Z,100.00
2022-08-23T21:19:03.938Z,100.00
2022-08-23T21:21:31.221Z,100.00
2022-08-23T21:23:58.175Z,100.00
2022-08-23T21:26:27.543Z,100.00
2022-08-23T21:28:54.925Z,100.00
2022-08-23T21:31:24.950Z,100.00
2022-08-23T21:33:53.094Z,100.00
2022-08-23T21:36:24.661Z,100.00
2022-08-23T21:38:52.597Z,100.00
2022-08-23T21:41:32.252Z,100.00
2022-08-23T21:43:59.547Z,100.00
2022-08-23T21:46:26.995Z,100.00
2022-08-23T21:48:54.161Z,100.00
2022-08-23T21:51:20.735Z,100.00
2022-08-23T21:53:47.636Z,100.00
2022-08-23T21:56:14.961Z,100.00
2022-08-23T21:58:41.489Z,100.00
2022-08-23T22:01:09.137Z,100.00
2022-08-23T22:03:36.726Z,100.00
2022-08-23T22:06:04.881Z,100.00
2022-08-23T22:08:31.940Z,100.00
2022-08-23T22:11:07.122Z,100.00
2022-08-23T22:13:38.139Z,100.00
2022-08-23T22:16:05.067Z,100.00
2022-08-23T22:18:34.763Z,100.00
2022-08-23T22:21:06.379Z,100.00
2022-08-23T22:23:34.066Z,100.00
2022-08-23T22:26:03.353Z,100.00
2022-08-23T22:28:32.569Z,100.00
2022-08-23T22:31:04.852Z,100.00
2022-08-23T22:33:32.070Z,100.00
2022-08-23T22:36:03.932Z,100.00
2022-08-23T22:38:32.901Z,100.00
2022-08-23T22:40:59.644Z,100.00
2022-08-23T22:43:26.138Z,100.00
2022-08-23T22:45:54.910Z,100.00
2022-08-23T22:48:22.332Z,100.00
2022-08-23T22:50:51.561Z,100.00
2022-08-23T22:53:18.429Z,100.00
2022-08-23T22:55:52.616Z,100.00
2022-08-23T22:58:19.001Z,100.00
2022-08-23T23:00:45.488Z,100.00
2022-08-23T23:03:12.194Z,100.00
2022-08-23T23:05:39.539Z,100.00
2022-08-23T23:08:24.359Z,100.00
2022-08-23T23:10:50.888Z,100.00
2022-08-23T23:13:17.526Z,100.00
2022-08-23T23:15:47.363Z,100.00
2022-08-23T23:18:13.737Z,100.00
2022-08-23T23:20:41.305Z,100.00
2022-08-23T23:23:12.553Z,100.00
2022-08-23T23:25:40.016Z,100.00
2022-08-23T23:28:06.459Z,100.00
2022-08-23T23:30:40.121Z,100.00
2022-08-23T23:33:06.786Z,100.00
2022-08-23T23:35:34.323Z,100.00
2022-08-23T23:38:01.184Z,100.00
2022-08-23T23:40:29.179Z,100.00
2022-08-23T23:42:58.738Z,100.00
2022-08-23T23:45:28.481Z,100.00
2022-08-23T23:47:56.839Z,100.00
2022-08-23T23:50:25.328Z,100.00
2022-08-23T23:52:51.856Z,100.00
2022-08-23T23:55:21.016Z,100.00
2022-08-23T23:57:47.454Z,100.00
